This is the latest recevied weather packets stored in our database for station/object K4VEB. If no packets are shown the sender has not sent any weather packets the latest 1 day(s).
| Time | Temp. | Humidity | Pressure | Rain* | Wind** | Luminosity | Snow |
|---|---|---|---|---|---|---|---|
| 1778100034 | 34.44° C | 38% | 1014.4 hPa | 0 mm | - | 478 W/m² | - |
| 1778098822 | 35° C | 38% | 1014.5 hPa | 0 mm | - | 448 W/m² | - |
| 1778097307 | 34.44° C | 39% | 1014.7 hPa | 0 mm | - | 474 W/m² | - |
| 1778096700 | 34.44° C | 40% | 1014.9 hPa | 0 mm | - | 547 W/m² | - |
| 1778095488 | 34.44° C | 40% | 1015.1 hPa | 0 mm | - | 743 W/m² | - |
| 1778095184 | 34.44° C | 40% | 1015.2 hPa | 0 mm | - | 742 W/m² | - |
| 1778094881 | 34.44° C | 40% | 1015.3 hPa | 0 mm | - | 703 W/m² | - |
| 1778094577 | 33.33° C | 43% | 1015.5 hPa | 0 mm | - | 762 W/m² | - |
| 1778094274 | 33.89° C | 40% | 1015.3 hPa | 0 mm | - | 702 W/m² | - |
| 1778093062 | 34.44° C | 42% | 1015.5 hPa | 0 mm | - | 818 W/m² | - |
| 1778091849 | 33.89° C | 41% | 1015.9 hPa | 0 mm | - | 774 W/m² | - |
| 1778090941 | 32.78° C | 43% | 1016 hPa | 0 mm | - | 850 W/m² | - |
| 1778090637 | 32.78° C | 44% | 1016 hPa | 0 mm | - | 857 W/m² | - |
| 1778089425 | 33.33° C | 44% | 1016.3 hPa | 0 mm | - | 840 W/m² | - |
| 1778088819 | 32.22° C | 45% | 1016.3 hPa | 0 mm | - | 639 W/m² | - |
| 1778088213 | 31.67° C | 45% | 1016.5 hPa | 0 mm | - | 844 W/m² | - |
| 1778086700 | 32.22° C | 45% | 1016.5 hPa | 0 mm | - | 800 W/m² | - |
| 1778086397 | 32.22° C | 46% | 1016.7 hPa | 0 mm | - | 815 W/m² | - |
| 1778085182 | 31.67° C | 46% | 1017 hPa | 0 mm | - | 829 W/m² | - |
| 1778084878 | 32.22° C | 47% | 1017.1 hPa | 0 mm | - | 828 W/m² | - |
| 1778081627 | 30.56° C | 51% | 1017.4 hPa | 0 mm | - | 531 W/m² | - |
| 1778081021 | 30° C | 52% | 1017.4 hPa | 0 mm | - | 659 W/m² | - |
| 1778080113 | 29.44° C | 54% | 1017.3 hPa | 0 mm | - | 647 W/m² | - |
| 1778078597 | 28.33° C | 60% | 1017.2 hPa | 0 mm | - | 530 W/m² | - |
| 1778077992 | 28.33° C | 60% | 1017.2 hPa | 0 mm | - | 555 W/m² | - |
* Rain latest hour (hover to see other rain measurements)
** Current wind speed in m/s (hover to see current wind gust speed)